createdAt,value
2024-03-24T00:00:37.326Z,935.8
2024-03-24T00:15:38.137Z,935.6
2024-03-24T00:30:38.793Z,935.5
2024-03-24T00:45:40.019Z,934.9
2024-03-24T01:00:42.645Z,934.9
2024-03-24T01:15:40.530Z,934.4
2024-03-24T01:30:41.524Z,933.8
2024-03-24T01:45:42.751Z,933.8
2024-03-24T02:00:43.599Z,933.6
2024-03-24T02:15:43.791Z,933.9
2024-03-24T02:30:43.440Z,934.1
2024-03-24T02:45:45.066Z,933.6
2024-03-24T03:00:45.564Z,933.3
2024-03-24T03:15:48.819Z,933
2024-03-24T03:30:48.903Z,932.7
2024-03-24T03:45:49.033Z,932.5
2024-03-24T04:00:49.880Z,932.5
2024-03-24T04:15:49.743Z,932.5
2024-03-24T04:30:50.064Z,932.4
2024-03-24T04:45:50.735Z,932.4
2024-03-24T05:00:51.321Z,932.4
2024-03-24T05:15:53.259Z,932.3
2024-03-24T05:31:46.907Z,932.3
2024-03-24T05:46:47.769Z,932.1
2024-03-24T06:01:48.818Z,932.2
2024-03-24T06:16:49.282Z,932.1
2024-03-24T06:31:49.632Z,932.3
2024-03-24T06:46:49.965Z,932.7
2024-03-24T07:01:52.466Z,933.2
2024-03-24T07:16:51.309Z,933.7
2024-03-24T07:31:52.187Z,933.9
2024-03-24T07:46:52.168Z,934.1
2024-03-24T08:01:53.634Z,934.4
2024-03-24T08:16:56.902Z,934.5
2024-03-24T08:31:54.432Z,934.8
2024-03-24T08:46:55.429Z,934.8
2024-03-24T09:01:55.990Z,935.3
2024-03-24T09:16:57.150Z,935.3
2024-03-24T09:31:59.874Z,934.3
2024-03-24T09:46:58.313Z,933.5
2024-03-24T10:01:59.092Z,935.2
2024-03-24T10:17:00.274Z,933.3
2024-03-24T10:32:28.470Z,929.2
2024-03-24T10:47:03.270Z,932.6
2024-03-24T11:02:03.953Z,931
2024-03-24T11:17:03.016Z,927.3
2024-03-24T11:32:07.615Z,927.3
2024-03-24T11:47:05.531Z,927.1
2024-03-24T12:02:10.262Z,928
2024-03-24T12:17:12.028Z,928.5
2024-03-24T12:32:06.400Z,929.2
2024-03-24T12:47:07.387Z,929.3
2024-03-24T13:02:07.722Z,928
2024-03-24T13:17:08.959Z,928
2024-03-24T13:32:08.318Z,928.6
2024-03-24T13:47:09.986Z,932.7
2024-03-24T14:02:11.426Z,933
2024-03-24T14:17:11.702Z,931.2
2024-03-24T14:32:11.914Z,926.9
2024-03-24T14:47:12.771Z,926
2024-03-24T15:02:13.199Z,926.1
2024-03-24T15:17:14.073Z,925.7
2024-03-24T15:32:14.311Z,926.2
2024-03-24T15:47:15.066Z,930
2024-03-24T16:02:20.188Z,929.6
2024-03-24T16:17:17.413Z,926.7
2024-03-24T16:32:16.863Z,926.1
2024-03-24T16:47:20.466Z,926
2024-03-24T17:02:19.620Z,927.4
2024-03-24T17:17:19.302Z,931.7
2024-03-24T17:32:20.401Z,931.5
2024-03-24T17:47:24.343Z,930.7
2024-03-24T18:02:24.186Z,928.5
2024-03-24T18:17:24.281Z,927.4
2024-03-24T18:32:24.907Z,927.4
2024-03-24T18:47:28.622Z,927.4
2024-03-24T19:02:26.516Z,926.8
2024-03-24T19:17:28.242Z,926.8
2024-03-24T19:32:27.854Z,926.3
2024-03-24T19:47:36.061Z,926.6
2024-03-24T20:02:29.176Z,927.4
2024-03-24T20:17:31.096Z,927.4
2024-03-24T20:32:30.610Z,930.6
2024-03-24T20:47:37.155Z,931.2
2024-03-24T21:02:32.833Z,931
2024-03-24T21:17:33.662Z,932.1
2024-03-24T21:32:35.061Z,933.9
2024-03-24T21:47:34.629Z,934
2024-03-24T22:02:35.423Z,933.5
2024-03-24T22:17:37.464Z,933.9
2024-03-24T22:32:36.850Z,933.3
2024-03-24T22:47:37.638Z,933
2024-03-24T23:00:35.706Z,932.8
2024-03-24T23:15:36.970Z,933.7
2024-03-24T23:30:36.761Z,934.7
2024-03-24T23:45:37.893Z,934.7
